createdAt,value
2019-03-22T00:00:22.211Z,12.36
2019-03-22T00:02:54.275Z,12.33
2019-03-22T00:05:26.265Z,12.29
2019-03-22T00:08:00.233Z,12.28
2019-03-22T00:10:32.233Z,12.26
2019-03-22T00:13:05.495Z,12.25
2019-03-22T00:15:37.723Z,12.26
2019-03-22T00:18:09.850Z,12.27
2019-03-22T00:20:42.129Z,12.27
2019-03-22T00:23:14.261Z,12.27
2019-03-22T00:25:46.397Z,12.27
2019-03-22T00:28:20.194Z,12.27
2019-03-22T00:30:52.880Z,12.29
2019-03-22T00:33:24.857Z,12.28
2019-03-22T00:35:57.227Z,12.29
2019-03-22T00:38:32.811Z,12.28
2019-03-22T00:41:04.929Z,12.28
2019-03-22T00:43:36.943Z,12.29
2019-03-22T00:46:09.127Z,12.28
2019-03-22T00:48:41.588Z,12.27
2019-03-22T00:51:13.628Z,12.26
2019-03-22T00:53:45.638Z,12.25
2019-03-22T00:56:17.751Z,12.28
2019-03-22T00:58:49.761Z,12.29
2019-03-22T01:01:21.766Z,12.29
2019-03-22T01:03:53.747Z,12.30
2019-03-22T01:06:26.029Z,12.30
2019-03-22T01:08:58.333Z,12.31
2019-03-22T01:11:30.331Z,12.30
2019-03-22T01:14:02.370Z,12.29
2019-03-22T01:16:34.430Z,12.29
2019-03-22T01:19:06.434Z,12.29
2019-03-22T01:21:38.440Z,12.28
2019-03-22T01:24:10.480Z,12.28
2019-03-22T01:26:42.438Z,12.27
2019-03-22T01:29:14.388Z,12.28
2019-03-22T01:31:46.440Z,12.24
2019-03-22T01:34:18.416Z,12.18
2019-03-22T01:36:50.716Z,12.15
2019-03-22T01:39:25.980Z,12.13
2019-03-22T01:41:58.678Z,12.10
2019-03-22T01:44:30.694Z,12.05
2019-03-22T01:47:02.955Z,12.02
2019-03-22T01:49:35.409Z,11.91
2019-03-22T01:52:07.475Z,11.71
2019-03-22T01:54:39.545Z,11.59
2019-03-22T01:57:11.611Z,11.58
2019-03-22T01:59:43.597Z,11.60
2019-03-22T02:02:15.851Z,11.66
2019-03-22T02:04:47.986Z,11.64
2019-03-22T02:07:20.164Z,11.62
2019-03-22T02:09:52.325Z,11.60
2019-03-22T02:12:24.476Z,11.61
2019-03-22T02:14:56.460Z,11.58
2019-03-22T02:17:28.433Z,11.53
2019-03-22T02:20:01.005Z,11.57
2019-03-22T02:22:33.015Z,11.63
2019-03-22T02:25:07.871Z,11.68
2019-03-22T02:27:40.034Z,11.71
2019-03-22T02:30:15.522Z,11.70
2019-03-22T02:32:47.572Z,11.65
2019-03-22T02:35:28.617Z,11.61
2019-03-22T02:37:53.240Z,11.58
2019-03-22T02:40:25.581Z,11.53
2019-03-22T02:42:57.686Z,11.36
2019-03-22T02:45:29.684Z,11.30
2019-03-22T02:48:01.778Z,11.31
2019-03-22T02:50:33.759Z,11.29
2019-03-22T02:53:07.205Z,11.30
2019-03-22T02:55:39.877Z,11.24
2019-03-22T02:58:20.642Z,11.26
2019-03-22T03:00:45.989Z,11.29
2019-03-22T03:03:17.972Z,11.26
2019-03-22T03:05:50.243Z,11.20
2019-03-22T03:08:22.298Z,11.12
2019-03-22T03:10:54.279Z,11.00
2019-03-22T03:13:26.453Z,10.91
2019-03-22T03:15:58.438Z,10.86
2019-03-22T03:18:30.996Z,10.81
2019-03-22T03:21:02.993Z,10.70
2019-03-22T03:23:35.039Z,10.67
2019-03-22T03:26:07.113Z,10.68
2019-03-22T03:28:39.129Z,10.66
2019-03-22T03:31:11.532Z,10.64
2019-03-22T03:33:43.700Z,10.62
2019-03-22T03:36:15.730Z,10.63
2019-03-22T03:38:47.728Z,10.67
2019-03-22T03:41:19.731Z,10.68
2019-03-22T03:43:51.871Z,10.68
2019-03-22T03:46:23.872Z,10.68
2019-03-22T03:48:55.977Z,10.63
2019-03-22T03:51:27.959Z,10.61
2019-03-22T03:53:59.962Z,10.59
2019-03-22T03:56:31.924Z,10.58
2019-03-22T03:59:03.971Z,10.63
2019-03-22T04:01:35.971Z,10.65
2019-03-22T04:04:08.271Z,10.61
2019-03-22T04:06:40.549Z,10.56
2019-03-22T04:09:12.580Z,10.50
2019-03-22T04:11:44.738Z,10.47
2019-03-22T04:14:16.752Z,10.46
2019-03-22T04:16:48.754Z,10.48
2019-03-22T04:19:21.538Z,10.50
2019-03-22T04:21:53.517Z,10.52
2019-03-22T04:24:25.553Z,10.48
2019-03-22T04:26:57.561Z,10.48
2019-03-22T04:29:29.611Z,10.47
2019-03-22T04:32:01.603Z,10.46
2019-03-22T04:34:33.639Z,10.45
2019-03-22T04:37:05.970Z,10.51
2019-03-22T04:39:37.997Z,10.56
2019-03-22T04:42:10.926Z,10.54
2019-03-22T04:44:42.937Z,10.52
2019-03-22T04:47:19.693Z,10.53
2019-03-22T04:49:53.509Z,10.53
2019-03-22T04:52:27.939Z,10.56
2019-03-22T04:55:02.627Z,10.60
2019-03-22T04:57:35.762Z,10.61
2019-03-22T05:00:23.591Z,10.63
2019-03-22T05:02:56.096Z,10.66
2019-03-22T05:05:29.709Z,10.67
2019-03-22T05:08:02.524Z,10.69
2019-03-22T05:10:37.552Z,10.72
2019-03-22T05:13:11.090Z,10.72
2019-03-22T05:15:44.178Z,10.71
2019-03-22T05:18:16.933Z,10.73
2019-03-22T05:20:51.898Z,10.71
2019-03-22T05:23:25.727Z,10.72
2019-03-22T05:26:00.099Z,10.77
2019-03-22T05:28:33.748Z,10.82
2019-03-22T05:31:22.116Z,10.84
2019-03-22T05:33:54.185Z,10.86
2019-03-22T05:36:26.229Z,10.89
2019-03-22T05:38:58.255Z,10.92
2019-03-22T05:41:30.320Z,10.94
2019-03-22T05:44:02.802Z,11.00
2019-03-22T05:46:34.842Z,11.03
2019-03-22T05:49:06.864Z,11.08
2019-03-22T05:51:38.925Z,11.10
2019-03-22T05:54:11.030Z,11.13
2019-03-22T05:56:43.079Z,11.15
2019-03-22T05:59:15.100Z,11.13
2019-03-22T06:01:47.095Z,11.13
2019-03-22T06:04:19.269Z,11.13
2019-03-22T06:06:51.406Z,11.16
2019-03-22T06:09:23.433Z,11.19
2019-03-22T06:11:56.289Z,11.22
2019-03-22T06:14:28.322Z,11.25
2019-03-22T06:17:00.365Z,11.27
2019-03-22T06:19:32.379Z,11.29
2019-03-22T06:22:04.723Z,11.29
2019-03-22T06:24:36.744Z,11.31
2019-03-22T06:27:09.527Z,11.31
2019-03-22T06:29:53.402Z,11.32
2019-03-22T06:32:15.543Z,11.33
2019-03-22T06:34:53.870Z,11.33
2019-03-22T06:37:27.221Z,11.36
2019-03-22T06:40:00.499Z,11.33
2019-03-22T06:42:43.201Z,11.32
2019-03-22T06:45:35.726Z,11.36
2019-03-22T06:48:18.353Z,11.40
2019-03-22T06:51:16.308Z,11.45
2019-03-22T06:53:56.996Z,11.50
2019-03-22T06:56:29.453Z,11.57
2019-03-22T06:59:05.320Z,11.65
2019-03-22T07:01:41.251Z,11.72
2019-03-22T07:04:13.537Z,11.79
2019-03-22T07:06:55.154Z,11.85
2019-03-22T07:09:31.754Z,11.90
2019-03-22T07:12:11.152Z,11.93
2019-03-22T07:14:47.679Z,11.95
2019-03-22T07:17:19.952Z,11.99
2019-03-22T07:19:52.320Z,12.01
2019-03-22T07:22:25.147Z,12.02
2019-03-22T07:24:57.249Z,12.04
2019-03-22T07:27:29.619Z,12.08
2019-03-22T07:30:01.679Z,12.11
2019-03-22T07:32:33.873Z,12.16
2019-03-22T07:35:06.940Z,12.20
2019-03-22T07:37:38.994Z,12.23
2019-03-22T07:40:12.746Z,12.29
2019-03-22T07:42:44.786Z,12.32
2019-03-22T07:45:17.086Z,12.31
2019-03-22T07:47:49.182Z,12.28
2019-03-22T07:50:21.225Z,12.26
2019-03-22T07:52:55.002Z,12.26
2019-03-22T07:55:27.868Z,12.29
2019-03-22T07:58:05.555Z,12.32
2019-03-22T08:00:40.941Z,12.35
2019-03-22T08:03:15.478Z,12.31
2019-03-22T08:05:51.432Z,12.32
2019-03-22T08:08:24.486Z,12.35
2019-03-22T08:10:58.054Z,12.40
2019-03-22T08:13:30.095Z,12.45
2019-03-22T08:16:04.574Z,12.50
2019-03-22T08:18:49.346Z,12.55
2019-03-22T08:21:31.640Z,12.58
2019-03-22T08:24:05.302Z,12.60
2019-03-22T08:26:37.855Z,12.62
2019-03-22T08:29:10.018Z,12.62
2019-03-22T08:31:42.081Z,12.62
2019-03-22T08:34:14.810Z,12.64
2019-03-22T08:36:46.953Z,12.67
2019-03-22T08:39:20.044Z,12.68
2019-03-22T08:41:52.100Z,12.71
2019-03-22T08:44:24.135Z,12.73
2019-03-22T08:46:56.183Z,12.76
2019-03-22T08:49:28.905Z,12.78
2019-03-22T08:52:01.942Z,12.76
2019-03-22T08:54:38.277Z,12.74
2019-03-22T08:57:10.888Z,12.75
2019-03-22T08:59:45.819Z,12.78
2019-03-22T09:02:21.193Z,12.80
2019-03-22T09:05:08.106Z,12.83
2019-03-22T09:07:53.565Z,12.88
2019-03-22T09:10:28.917Z,12.90
2019-03-22T09:13:10.579Z,12.92
2019-03-22T09:15:46.496Z,12.90
2019-03-22T09:18:30.217Z,12.91
2019-03-22T09:21:16.900Z,12.97
2019-03-22T09:23:56.934Z,12.95
2019-03-22T09:52:42.910Z,12.95
2019-03-22T09:55:15.465Z,12.98
2019-03-22T09:57:49.564Z,13.02
2019-03-22T10:00:33.735Z,13.06
2019-03-22T10:03:10.773Z,13.08
2019-03-22T10:05:43.711Z,13.08
2019-03-22T10:08:29.138Z,13.08
2019-03-22T10:11:08.028Z,13.09
2019-03-22T10:14:05.149Z,13.09
2019-03-22T10:20:20.725Z,13.07
2019-03-22T10:22:55.863Z,13.06
2019-03-22T10:25:28.787Z,13.07
2019-03-22T10:31:42.472Z,13.11
2019-03-22T10:34:25.087Z,13.12
2019-03-22T10:37:03.704Z,13.13
2019-03-22T10:40:03.981Z,13.15
2019-03-22T10:42:41.083Z,13.16
2019-03-22T10:45:14.118Z,13.19
2019-03-22T10:47:48.705Z,13.21
2019-03-22T10:59:30.444Z,13.30
2019-03-22T11:08:22.143Z,13.27
2019-03-22T11:10:54.263Z,13.30
2019-03-22T11:13:26.349Z,13.36
2019-03-22T11:26:37.636Z,13.38
2019-03-22T11:29:09.727Z,13.41
2019-03-22T11:31:42.167Z,13.45
2019-03-22T11:34:19.296Z,13.50
2019-03-22T11:36:52.830Z,13.54
2019-03-22T11:39:25.239Z,13.58
2019-03-22T11:41:57.344Z,13.55
2019-03-22T11:44:29.406Z,13.66
2019-03-22T11:47:06.181Z,13.70
2019-03-22T11:49:41.021Z,13.71
2019-03-22T11:52:14.617Z,13.69
2019-03-22T11:54:58.786Z,13.69
2019-03-22T11:57:34.909Z,13.70
2019-03-22T12:00:33.908Z,13.73
2019-03-22T12:03:10.777Z,13.78
2019-03-22T12:05:44.442Z,13.80
2019-03-22T12:08:17.275Z,13.82
2019-03-22T12:10:51.425Z,13.85
2019-03-22T12:13:23.687Z,13.87
2019-03-22T12:15:56.501Z,13.91
2019-03-22T12:18:28.830Z,13.91
2019-03-22T12:21:01.928Z,13.89
2019-03-22T12:33:14.916Z,13.77
2019-03-22T12:35:48.581Z,13.70
2019-03-22T12:38:21.363Z,13.66
2019-03-22T12:40:53.398Z,13.69
2019-03-22T12:43:26.988Z,13.73
2019-03-22T12:45:59.119Z,13.71
2019-03-22T12:48:31.326Z,13.68
2019-03-22T12:51:03.462Z,13.64
2019-03-22T12:53:35.569Z,13.63
2019-03-22T12:56:07.568Z,13.60
2019-03-22T12:58:39.666Z,13.61
2019-03-22T13:01:11.794Z,13.65
2019-03-22T13:03:44.447Z,13.66
2019-03-22T13:06:16.543Z,13.68
2019-03-22T13:08:48.578Z,13.71
2019-03-22T13:11:21.976Z,13.70
2019-03-22T13:13:54.032Z,13.71
2019-03-22T13:16:26.153Z,13.70
2019-03-22T13:18:58.188Z,13.70
2019-03-22T13:21:30.207Z,13.70
2019-03-22T13:24:02.560Z,13.70
2019-03-22T13:26:34.656Z,13.71
2019-03-22T13:29:06.758Z,13.70
2019-03-22T13:31:38.760Z,13.67
2019-03-22T13:34:10.792Z,13.67
2019-03-22T13:36:42.885Z,13.67
2019-03-22T13:39:14.889Z,13.63
2019-03-22T13:41:46.942Z,13.62
2019-03-22T13:44:18.927Z,13.62
2019-03-22T13:46:51.137Z,13.59
2019-03-22T13:49:23.155Z,13.60
2019-03-22T13:51:57.548Z,13.62
2019-03-22T13:54:30.219Z,13.65
2019-03-22T13:57:02.307Z,13.66
2019-03-22T13:59:34.472Z,13.71
2019-03-22T14:02:06.639Z,13.75
2019-03-22T14:04:39.008Z,13.78
2019-03-22T14:07:11.327Z,13.80
2019-03-22T14:09:43.800Z,13.83
2019-03-22T14:12:17.775Z,13.84
2019-03-22T14:14:50.175Z,13.85
2019-03-22T14:26:38.666Z,13.88
2019-03-22T14:29:13.703Z,13.86
2019-03-22T14:31:46.811Z,13.84
2019-03-22T14:34:20.671Z,13.79
2019-03-22T14:36:58.312Z,13.80
2019-03-22T14:39:31.792Z,13.80
2019-03-22T14:42:03.976Z,13.79
2019-03-22T14:44:36.646Z,13.81
2019-03-22T14:47:12.970Z,13.81
2019-03-22T14:49:47.526Z,13.82
2019-03-22T14:52:24.276Z,13.84
2019-03-22T14:54:58.518Z,13.85
2019-03-22T14:57:48.664Z,13.86
2019-03-22T15:00:18.003Z,13.82
2019-03-22T15:02:54.441Z,13.81
2019-03-22T15:05:41.602Z,13.79
2019-03-22T15:08:17.154Z,13.77
2019-03-22T15:10:53.819Z,13.78
2019-03-22T15:13:32.441Z,13.76
2019-03-22T15:19:21.762Z,13.69
2019-03-22T15:22:01.620Z,13.67
2019-03-22T15:24:35.656Z,13.66
2019-03-22T15:27:09.749Z,13.65
2019-03-22T15:29:49.763Z,13.61
2019-03-22T15:32:39.092Z,13.60
2019-03-22T15:35:31.065Z,13.56
2019-03-22T15:38:20.632Z,13.56
2019-03-22T15:40:52.769Z,13.53
2019-03-22T15:43:25.235Z,13.51
2019-03-22T15:45:57.382Z,13.46
2019-03-22T15:48:29.777Z,13.45
2019-03-22T15:51:01.804Z,13.43
2019-03-22T15:53:34.227Z,13.47
2019-03-22T15:56:06.416Z,13.47
2019-03-22T15:58:38.451Z,13.48
2019-03-22T16:01:11.310Z,13.46
2019-03-22T16:03:44.477Z,13.43
2019-03-22T16:06:19.386Z,13.43
2019-03-22T16:08:51.834Z,13.44
2019-03-22T16:11:24.058Z,13.45
2019-03-22T16:13:56.216Z,13.43
2019-03-22T16:16:28.580Z,13.43
2019-03-22T16:19:04.593Z,13.42
2019-03-22T16:21:36.846Z,13.41
2019-03-22T16:24:10.216Z,13.39
2019-03-22T16:26:44.035Z,13.39
2019-03-22T16:29:16.154Z,13.39
2019-03-22T16:31:53.139Z,13.41
2019-03-22T16:34:26.744Z,13.40
2019-03-22T16:36:59.188Z,13.36
2019-03-22T16:39:34.394Z,13.32
2019-03-22T16:42:07.452Z,13.28
2019-03-22T16:44:41.971Z,13.25
2019-03-22T16:47:13.965Z,13.22
2019-03-22T16:49:46.225Z,13.19
2019-03-22T16:52:18.286Z,13.19
2019-03-22T16:54:50.306Z,13.17
2019-03-22T16:57:23.153Z,13.15
2019-03-22T16:59:56.225Z,13.14
2019-03-22T17:02:28.325Z,13.14
2019-03-22T17:05:00.481Z,13.14
2019-03-22T17:07:32.821Z,13.14
2019-03-22T17:10:07.980Z,13.12
2019-03-22T17:12:40.046Z,13.12
2019-03-22T17:15:12.184Z,13.10
2019-03-22T17:17:45.446Z,13.07
2019-03-22T17:20:17.565Z,13.05
2019-03-22T17:22:50.369Z,13.03
2019-03-22T17:25:22.402Z,13.03
2019-03-22T17:27:54.861Z,13.04
2019-03-22T17:30:29.386Z,13.02
2019-03-22T17:33:01.383Z,12.98
2019-03-22T17:35:33.490Z,12.98
2019-03-22T17:38:06.039Z,12.96
2019-03-22T17:40:38.096Z,12.96
2019-03-22T17:43:10.106Z,12.96
2019-03-22T17:45:42.204Z,12.97
2019-03-22T17:48:14.192Z,12.98
2019-03-22T17:50:47.081Z,12.96
2019-03-22T17:53:19.128Z,12.95
2019-03-22T17:55:51.513Z,13.00
2019-03-22T17:58:23.912Z,13.02
2019-03-22T18:00:56.112Z,12.97
2019-03-22T18:03:28.477Z,12.96
2019-03-22T18:06:00.518Z,12.95
2019-03-22T18:08:32.596Z,12.93
2019-03-22T18:11:04.920Z,12.93
2019-03-22T18:13:36.957Z,12.92
2019-03-22T18:16:09.031Z,12.91
2019-03-22T18:18:41.661Z,12.92
2019-03-22T18:21:14.329Z,12.90
2019-03-22T18:23:47.187Z,12.87
2019-03-22T18:26:19.564Z,12.87
2019-03-22T18:28:51.974Z,12.86
2019-03-22T18:31:23.970Z,12.87
2019-03-22T18:33:56.355Z,12.87
2019-03-22T18:36:28.340Z,12.87
2019-03-22T18:39:00.348Z,12.85
2019-03-22T18:41:32.776Z,12.85
2019-03-22T18:44:05.051Z,12.86
2019-03-22T18:46:37.076Z,12.85
2019-03-22T18:49:09.549Z,12.85
2019-03-22T18:51:41.689Z,12.84
2019-03-22T18:54:13.994Z,12.83
2019-03-22T18:56:46.023Z,12.82
2019-03-22T18:59:18.088Z,12.80
2019-03-22T19:01:50.186Z,12.79
2019-03-22T19:04:22.278Z,12.76
2019-03-22T19:06:54.362Z,12.72
2019-03-22T19:09:26.526Z,12.68
2019-03-22T19:11:58.846Z,12.65
2019-03-22T19:14:31.683Z,12.64
2019-03-22T19:17:03.701Z,12.63
2019-03-22T19:19:35.818Z,12.63
2019-03-22T19:22:09.096Z,12.60
2019-03-22T19:24:46.759Z,12.59
2019-03-22T19:27:20.459Z,12.57
2019-03-22T19:29:52.454Z,12.54
2019-03-22T19:32:28.309Z,12.50
2019-03-22T19:35:00.412Z,12.46
2019-03-22T19:37:33.196Z,12.43
2019-03-22T19:40:12.682Z,12.40
2019-03-22T19:42:45.005Z,12.36
2019-03-22T19:45:17.501Z,12.33
2019-03-22T19:47:49.627Z,12.30
2019-03-22T19:50:21.629Z,12.26
2019-03-22T19:52:53.960Z,12.20
2019-03-22T19:55:25.997Z,12.17
2019-03-22T19:57:57.961Z,12.13
2019-03-22T20:00:30.030Z,12.09
2019-03-22T20:03:02.064Z,12.05
2019-03-22T20:05:34.613Z,12.02
2019-03-22T20:08:07.020Z,11.98
2019-03-22T20:10:39.116Z,11.94
2019-03-22T20:13:11.246Z,11.92
2019-03-22T20:15:44.192Z,11.89
2019-03-22T20:18:16.254Z,11.88
2019-03-22T20:20:48.338Z,11.84
2019-03-22T20:23:20.362Z,11.81
2019-03-22T20:25:52.832Z,11.79
2019-03-22T20:28:24.879Z,11.75
2019-03-22T20:30:56.866Z,11.72
2019-03-22T20:33:28.904Z,11.71
2019-03-22T20:36:01.252Z,11.69
2019-03-22T20:38:33.278Z,11.66
2019-03-22T20:41:05.704Z,11.65
2019-03-22T20:43:37.703Z,11.64
2019-03-22T20:46:09.738Z,11.63
2019-03-22T20:48:41.725Z,11.62
2019-03-22T20:51:14.013Z,11.61
2019-03-22T20:53:46.081Z,11.59
2019-03-22T20:56:18.402Z,11.59
2019-03-22T20:58:50.558Z,11.55
2019-03-22T21:01:22.692Z,11.54
2019-03-22T21:03:55.019Z,11.49
2019-03-22T21:06:27.935Z,11.48
2019-03-22T21:09:01.358Z,11.46
2019-03-22T21:14:25.839Z,11.36
2019-03-22T21:17:00.060Z,11.34
2019-03-22T21:19:32.276Z,11.31
2019-03-22T21:22:05.568Z,11.32
2019-03-22T21:24:37.658Z,11.32
2019-03-22T21:27:15.378Z,11.30
2019-03-22T21:29:44.290Z,11.27
2019-03-22T21:32:18.699Z,11.22
2019-03-22T21:34:50.950Z,11.20
2019-03-22T21:37:23.020Z,11.18
2019-03-22T21:39:55.166Z,11.17
2019-03-22T21:42:27.445Z,11.18
2019-03-22T21:44:59.804Z,11.17
2019-03-22T21:47:32.231Z,11.16
2019-03-22T21:50:06.746Z,11.15
2019-03-22T21:52:38.761Z,11.14
2019-03-22T21:55:11.453Z,11.13
2019-03-22T21:57:44.195Z,11.09
2019-03-22T22:00:16.736Z,11.05
2019-03-22T22:02:48.868Z,11.03
2019-03-22T22:05:21.678Z,11.01
2019-03-22T22:07:53.727Z,11.01
2019-03-22T22:10:25.812Z,11.02
2019-03-22T22:12:57.794Z,11.01
2019-03-22T22:15:29.835Z,10.98
2019-03-22T22:18:03.912Z,10.98
2019-03-22T22:20:36.075Z,10.98
2019-03-22T22:23:08.781Z,10.99
2019-03-22T22:25:46.993Z,10.99
2019-03-22T22:28:20.939Z,10.98
2019-03-22T22:30:53.255Z,10.95
2019-03-22T22:33:25.953Z,10.93
2019-03-22T22:35:59.045Z,10.91
2019-03-22T22:38:31.738Z,10.91
2019-03-22T22:41:03.740Z,10.89
2019-03-22T22:43:38.941Z,10.88
2019-03-22T22:46:11.946Z,10.88
2019-03-22T22:48:45.621Z,10.88
2019-03-22T22:51:17.632Z,10.89
2019-03-22T22:53:49.647Z,10.92
2019-03-22T22:56:21.738Z,10.95
2019-03-22T22:58:53.775Z,10.95
2019-03-22T23:01:25.792Z,10.97
2019-03-22T23:03:57.810Z,11.00
2019-03-22T23:06:29.852Z,10.99
2019-03-22T23:09:01.886Z,11.00
2019-03-22T23:11:33.978Z,11.00
2019-03-22T23:14:05.962Z,10.99
2019-03-22T23:16:37.980Z,10.98
2019-03-22T23:19:10.010Z,10.97
2019-03-22T23:21:42.048Z,10.97
2019-03-22T23:24:14.333Z,10.97
2019-03-22T23:26:46.664Z,10.97
2019-03-22T23:29:18.986Z,10.96
2019-03-22T23:31:51.029Z,10.96
2019-03-22T23:34:23.132Z,10.96
2019-03-22T23:36:55.236Z,10.93
2019-03-22T23:39:27.268Z,10.93
2019-03-22T23:41:59.367Z,10.91
2019-03-22T23:44:31.375Z,10.89
2019-03-22T23:47:03.425Z,10.87
2019-03-22T23:49:35.711Z,10.84
2019-03-22T23:52:07.875Z,10.81
2019-03-22T23:54:39.940Z,10.78
2019-03-22T23:57:11.984Z,10.78
2019-03-22T23:59:45.244Z,10.77
